WetterOnline ( https://www.wetteronline.de )

Wetter aktuell Holldorf

Aktuelles Wetter: Grünow (57m)

6-stündlich | Neueste Meldungen
Ortszeit Temperatur Wetter
Mo, 23.09. 14:00 20.8° C wolkenlos
Mo, 23.09. 8:00 11.0° C wolkenlos
Mo, 23.09. 2:00 13.5° C wolkig
So, 22.09. 20:00 18.4° C wolkenlos
So, 22.09. 14:00 22.3° C wolkenlos
So, 22.09. 8:00 8.4° C wolkenlos
So, 22.09. 2:00 10.3° C wolkenlos
Sa, 21.09. 20:00 15.8° C wolkenlos
Ortszeit Temperatur Wetter
Mo, 23.09. 17:00 21.7° C leicht bewölkt
Mo, 23.09. 16:50 21.7° C wolkig
Mo, 23.09. 16:40 21.7° C wolkig
Mo, 23.09. 16:30 21.9° C leicht bewölkt
Mo, 23.09. 16:20 21.9° C leicht bewölkt
Mo, 23.09. 16:10 21.9° C leicht bewölkt
Mo, 23.09. 16:00 22.5° C leicht bewölkt
Mo, 23.09. 15:30 22.4° C leicht bewölkt
Mo, 23.09. 15:00 21.9° C leicht bewölkt
Mo, 23.09. 14:30 21.8° C fast wolkenlos
Mo, 23.09. 14:00 20.8° C wolkenlos
Ortszeit Relative Feuchte Sichtweite
Mo, 23.09. 14:00 43% 35 km
Mo, 23.09. 8:00 86% 27 km
Mo, 23.09. 2:00 75% 40 km
So, 22.09. 20:00 53% 24 km
So, 22.09. 14:00 39% 65 km
So, 22.09. 8:00 86% 15 km
So, 22.09. 2:00 95% 30 km
Sa, 21.09. 20:00 73% 45 km
Ortszeit Relative Feuchte Sichtweite
Mo, 23.09. 17:00 41% 28 km
Mo, 23.09. 16:50 41% -
Mo, 23.09. 16:40 39% -
Mo, 23.09. 16:30 39% 40 km
Mo, 23.09. 16:20 39% -
Mo, 23.09. 16:10 39% -
Mo, 23.09. 16:00 37% 50 km
Mo, 23.09. 15:30 36% 35 km
Mo, 23.09. 15:00 36% 55 km
Mo, 23.09. 14:30 37% 65 km
Mo, 23.09. 14:00 43% 35 km
Ortszeit Niederschlagsmenge Niederschlagsart
Mo, 23.09. 14:00 0.0 l/m2 in 6 Std. -
Mo, 23.09. 8:00 0.0 l/m2 in 12 Std. -
Mo, 23.09. 2:00 0.0 l/m2 in 6 Std. -
So, 22.09. 20:00 0.0 l/m2 in 12 Std. -
So, 22.09. 14:00 0.0 l/m2 in 6 Std. -
So, 22.09. 8:00 0.0 l/m2 in 12 Std. -
So, 22.09. 2:00 0.0 l/m2 in 6 Std. -
Sa, 21.09. 20:00 0.0 l/m2 in 12 Std. -
Ortszeit Niederschlagsmenge Niederschlagsart
Mo, 23.09. 17:00 0.0 l/m2 in 1 Std. -
Mo, 23.09. 16:50 keine Meldung -
Mo, 23.09. 16:40 keine Meldung -
Mo, 23.09. 16:30 0.0 l/m2 in 1 Std. -
Mo, 23.09. 16:20 keine Meldung -
Mo, 23.09. 16:10 keine Meldung -
Mo, 23.09. 16:00 0.0 l/m2 in 1 Std. -
Mo, 23.09. 15:30 0.0 l/m2 in 1 Std. -
Mo, 23.09. 15:00 0.0 l/m2 in 1 Std. -
Mo, 23.09. 14:30 0.0 l/m2 in 1 Std. -
Mo, 23.09. 14:00 0.0 l/m2 in 1 Std. -
Ortszeit Stärke Spitze Richtung
km/h Bft. km/h Grad Sektor
Mo, 23.09. 14:00 14 3 32 110° O
Mo, 23.09. 8:00 14 3 29 110° O
Mo, 23.09. 2:00 14 3 25 90° O
So, 22.09. 20:00 11 2 25 80° O
So, 22.09. 14:00 13 3 31 160° S
So, 22.09. 8:00 6 1 11 180° S
So, 22.09. 2:00 2 1 15 200° S
Sa, 21.09. 20:00 4 1 22 60° NO
Ortszeit Stärke Spitze Richtung
km/h Bft. km/h Grad Sektor
Mo, 23.09. 17:00 15 3 28 110° O
Mo, 23.09. 16:50 15 3 - 110° O
Mo, 23.09. 16:40 17 3 - 100° O
Mo, 23.09. 16:30 14 3 25 110° O
Mo, 23.09. 16:20 14 3 - 110° O
Mo, 23.09. 16:10 14 3 - 110° O
Mo, 23.09. 16:00 15 3 26 130° SO
Mo, 23.09. 15:30 15 3 26 130° SO
Mo, 23.09. 15:00 17 3 31 130° SO
Mo, 23.09. 14:30 18 3 25 140° SO
Mo, 23.09. 14:00 14 3 29 110° O
Ortszeit Untergrenze Bedeckung Gattung
total tief tief mittel hoch
Mo, 23.09. 14:00 - 0/8 0/8 - - -
Mo, 23.09. 8:00 - 0/8 0/8 - - -
Mo, 23.09. 2:00 10500 m 7/8 0/8 - - -
So, 22.09. 20:00 - 0/8 0/8 - - -
So, 22.09. 14:00 - 0/8 0/8 - - -
So, 22.09. 8:00 - 0/8 0/8 - - -
So, 22.09. 2:00 - 0/8 0/8 - - -
Sa, 21.09. 20:00 - 0/8 0/8 - - -
Ortszeit Bedeckungsgrad in Achtel und Wolkenuntergrenze
Mo, 23.09. 17:00 8(10500m)
Mo, 23.09. 16:50 8(10500m)
Mo, 23.09. 16:40 6(10500m) 7(10500m)
Mo, 23.09. 16:30 1(10500m) 4(10500m)
Mo, 23.09. 16:20 1(10500m) 4(10500m)
Mo, 23.09. 16:10 3(10500m)
Mo, 23.09. 16:00 3(10500m)
Mo, 23.09. 15:30 5(10500m)
Mo, 23.09. 15:00 2(10500m) 7(12000m)
Mo, 23.09. 14:30 1(12000m)
Mo, 23.09. 14:00 keine Wolken
Ortszeit Luftdruck NN (hPa) Tendenz (hPa in 3 Std.)
Mo, 23.09. 14:00 1015 - 0,5
Mo, 23.09. 8:00 1015 + 1,0
Mo, 23.09. 2:00 1013 0,0
So, 22.09. 20:00 1013 - 0,1
So, 22.09. 14:00 1014 - 1,8
So, 22.09. 8:00 1017 - 0,6
So, 22.09. 2:00 1019 - 0,7
Sa, 21.09. 20:00 1020 - 0,5
Ortszeit Luftdruck NN (hPa) Tendenz (hPa in 3 Std.)
Mo, 23.09. 17:00 1014 - 0,3
Mo, 23.09. 16:50 1014 keine Meldung
Mo, 23.09. 16:40 1014 keine Meldung
Mo, 23.09. 16:30 1014 - 0,5
Mo, 23.09. 16:20 1014 keine Meldung
Mo, 23.09. 16:10 1014 keine Meldung
Mo, 23.09. 16:00 1014 - 0,7
Mo, 23.09. 15:30 1014 - 0,7
Mo, 23.09. 15:00 1014 - 0,7
Mo, 23.09. 14:30 1014 - 0,6
Mo, 23.09. 14:00 1015 - 0,5
Ortszeit Schneehöhe (cm)
Mo, 23.09. 14:00 -
Mo, 23.09. 8:00 -
Mo, 23.09. 2:00 -
So, 22.09. 20:00 -
So, 22.09. 14:00 -
So, 22.09. 8:00 -
So, 22.09. 2:00 -
Sa, 21.09. 20:00 -
Ortszeit Schneehöhe (cm)
Mo, 23.09. 17:00 -
Mo, 23.09. 16:50 -
Mo, 23.09. 16:40 -
Mo, 23.09. 16:30 -
Mo, 23.09. 16:20 -
Mo, 23.09. 16:10 -
Mo, 23.09. 16:00 -
Mo, 23.09. 15:30 -
Mo, 23.09. 15:00 -
Mo, 23.09. 14:30 -
Mo, 23.09. 14:00 -
Link zu dieser Seite / Seite empfehlen

Das Wetter in ...